Time;durP1;ratioP1;P1;durP2;ratioP2;P2;SDS_P1;SDS_P2;PMS_P1;PMS_P2;Temp;Humidity;BMP_temperature;BMP_pressure;BME280_temperature;BME280_humidity;BME280_pressure;Samples;Min_cycle;Max_cycle;Signal;HPM_P1;HPM_P2
2021/07/26 00:01:14;;;;;;;15.48;12.75;;;;;;;18.38;74.41;99973.67;129866;1092;23234;-62
2021/07/26 00:03:44;;;;;;;18.08;13.38;;;;;;;18.36;74.50;99973.14;129866;1092;22511;-62
2021/07/26 00:06:12;;;;;;;18.48;12.80;;;;;;;18.36;74.36;99975.90;129731;1093;113894;-61
2021/07/26 00:08:49;;;;;;;16.53;12.80;;;;;;;18.35;74.47;99974.26;129825;1093;22532;-61
2021/07/26 00:11:31;;;;;;;17.28;12.55;;;;;;;18.34;74.48;99976.20;130402;1088;114489;-62
2021/07/26 00:14:01;;;;;;;15.98;11.98;;;;;;;18.31;74.47;99976.00;130485;1090;22559;-62
2021/07/26 00:16:31;;;;;;;12.98;11.53;;;;;;;18.30;74.36;99974.35;130357;1087;114381;-61
2021/07/26 00:19:01;;;;;;;16.35;12.03;;;;;;;18.30;74.57;99972.41;128801;1090;22785;-61
2021/07/26 00:21:31;;;;;;;17.58;11.43;;;;;;;18.28;74.25;99971.89;125910;1088;24440;-61
2021/07/26 00:24:20;;;;;;;14.85;11.73;;;;;;;18.24;74.55;99976.35;130332;1087;114082;-61
2021/07/26 00:26:49;;;;;;;17.05;12.20;;;;;;;18.22;74.69;99972.24;130473;1087;22564;-61
2021/07/26 00:29:26;;;;;;;17.40;12.13;;;;;;;18.19;74.81;99970.89;130400;1090;114458;-61
2021/07/26 00:31:56;;;;;;;21.95;12.30;;;;;;;18.17;75.01;99973.16;130513;1090;22538;-62
2021/07/26 00:34:26;;;;;;;17.65;13.15;;;;;;;18.15;75.17;99972.63;130361;1089;114140;-62
2021/07/26 00:36:56;;;;;;;14.73;12.23;;;;;;;18.13;75.10;99968.52;130513;1089;22533;-62
2021/07/26 00:39:27;;;;;;;21.28;12.13;;;;;;;18.10;75.35;99969.94;130473;1090;22568;-61
2021/07/26 00:41:56;;;;;;;16.23;11.78;;;;;;;18.09;75.36;99972.98;130376;1089;114154;-62
2021/07/26 00:44:26;;;;;;;18.05;12.90;;;;;;;18.06;75.47;99963.36;130512;1089;23187;-62
2021/07/26 00:46:56;;;;;;;21.35;13.28;;;;;;;18.05;75.46;99969.98;130355;1090;114120;-62
2021/07/26 00:49:25;;;;;;;24.38;12.73;;;;;;;18.00;75.52;99973.66;130511;1090;24408;-62
2021/07/26 00:51:58;;;;;;;20.55;12.35;;;;;;;17.99;75.63;99969.25;130514;1089;22546;-62
2021/07/26 00:54:31;;;;;;;18.93;12.35;;;;;;;17.96;75.64;99967.08;130357;1090;114291;-62
2021/07/26 00:57:01;;;;;;;18.08;12.40;;;;;;;17.96;75.95;99969.02;130476;1088;22571;-62
2021/07/26 00:59:30;;;;;;;14.03;11.28;;;;;;;17.94;76.07;99955.53;130395;1090;114513;-61
2021/07/26 01:01:59;;;;;;;18.63;12.68;;;;;;;17.94;75.91;99969.31;130470;1089;22517;-62
2021/07/26 01:04:30;;;;;;;16.78;12.40;;;;;;;17.90;75.69;99954.47;130385;1090;114576;-61
2021/07/26 01:06:59;;;;;;;16.15;12.33;;;;;;;17.88;75.66;99958.66;130440;1089;22511;-62
2021/07/26 01:09:40;;;;;;;15.45;11.55;;;;;;;17.87;75.60;99946.81;130511;1089;23502;-62
2021/07/26 01:12:24;;;;;;;12.25;10.93;;;;;;;17.88;75.49;99958.66;130374;1090;114203;-62
2021/07/26 01:14:53;;;;;;;14.60;11.08;;;;;;;17.86;75.54;99950.69;130522;1089;22531;-62
2021/07/26 01:18:14;;;;;;;16.08;12.18;;;;;;;17.84;75.63;99950.16;130295;1088;114207;-62
2021/07/26 01:20:43;;;;;;;14.28;12.03;;;;;;;17.82;75.87;99957.08;130048;1093;22588;-61
2021/07/26 01:23:20;;;;;;;18.67;13.00;;;;;;;17.78;75.97;99948.56;129933;1093;114132;-61
2021/07/26 01:25:49;;;;;;;16.53;11.80;;;;;;;17.76;76.27;99945.28;130069;1093;22538;-61
2021/07/26 01:28:19;;;;;;;18.58;12.08;;;;;;;17.73;76.33;99951.41;129937;1093;114306;-61
2021/07/26 01:30:48;;;;;;;18.03;12.68;;;;;;;17.72;76.59;99938.73;130025;1091;22663;-61
2021/07/26 01:33:18;;;;;;;14.68;12.25;;;;;;;17.71;76.57;99947.30;130088;1093;22524;-61
2021/07/26 01:35:47;;;;;;;15.28;11.90;;;;;;;17.70;76.69;99940.97;129963;1093;114126;-61
2021/07/26 01:38:15;;;;;;;15.23;11.70;;;;;;;17.69;76.44;99939.33;130099;1092;22591;-61
2021/07/26 01:40:53;;;;;;;20.45;12.50;;;;;;;17.68;76.64;99940.44;126819;1092;114949;-61
2021/07/26 01:43:25;;;;;;;16.55;11.45;;;;;;;17.66;76.64;99934.39;130050;1093;22654;-62
2021/07/26 01:46:02;;;;;;;15.68;11.48;;;;;;;17.65;76.68;99938.27;130069;1092;22757;-62
2021/07/26 01:49:00;;;;;;;17.50;11.33;;;;;;;17.63;76.48;99934.95;129963;1093;113993;-62
2021/07/26 01:51:40;;;;;;;15.35;11.40;;;;;;;17.62;76.46;99942.39;129767;1094;23277;-62
2021/07/26 01:54:09;;;;;;;22.23;12.40;;;;;;;17.61;76.70;99937.17;129609;1095;115072;-62
2021/07/26 01:56:38;;;;;;;20.03;12.33;;;;;;;17.60;76.67;99943.83;129793;1093;22715;-62
2021/07/26 01:59:07;;;;;;;24.65;11.83;;;;;;;17.59;76.76;99942.19;129954;1093;113645;-62
2021/07/26 02:01:37;;;;;;;28.63;15.43;;;;;;;17.58;76.69;99940.54;130077;1093;22715;-62
2021/07/26 02:04:06;;;;;;;23.28;13.48;;;;;;;17.59;77.10;99943.00;130048;1093;22768;-62
2021/07/26 02:06:36;;;;;;;20.48;13.93;;;;;;;17.59;77.01;99944.94;129933;1093;114575;-62
2021/07/26 02:09:05;;;;;;;19.43;13.43;;;;;;;17.58;76.70;99949.63;129998;1093;23523;-62
2021/07/26 02:11:34;;;;;;;16.83;12.30;;;;;;;17.57;76.57;99947.16;129933;1092;114404;-62
2021/07/26 02:14:09;;;;;;;24.18;15.90;;;;;;;17.56;76.47;99945.52;130060;1093;22976;-61
2021/07/26 02:16:39;;;;;;;20.85;16.33;;;;;;;17.55;76.50;99949.38;129966;1093;114593;-61
2021/07/26 02:19:08;;;;;;;28.03;18.95;;;;;;;17.55;76.59;99949.38;130091;1093;22727;-61
2021/07/26 02:21:36;;;;;;;26.15;18.50;;;;;;;17.54;76.45;99944.98;130030;1092;22726;-61
2021/07/26 02:24:07;;;;;;;27.63;20.73;;;;;;;17.53;76.55;99943.34;129936;1093;114152;-61
2021/07/26 02:26:37;;;;;;;31.80;19.78;;;;;;;17.54;76.65;99947.74;130060;1093;22649;-61
2021/07/26 02:29:05;;;;;;;27.38;17.33;;;;;;;17.54;76.60;99947.74;130135;1088;114012;-61
2021/07/26 02:31:34;;;;;;;24.70;16.33;;;;;;;17.54;76.70;99953.25;130443;1087;22542;-61
2021/07/26 02:34:03;;;;;;;25.15;16.23;;;;;;;17.52;76.82;99952.72;130497;1088;22561;-62
2021/07/26 02:36:32;;;;;;;19.73;14.68;;;;;;;17.53;76.58;99957.13;130364;1090;113967;-62
2021/07/26 02:39:01;;;;;;;17.48;12.68;;;;;;;17.53;76.67;99954.36;130488;1089;22520;-62
2021/07/26 02:41:33;;;;;;;20.38;14.00;;;;;;;17.52;76.72;99960.98;130400;1089;114493;-59
2021/07/26 02:44:02;;;;;;;20.83;12.58;;;;;;;17.54;76.44;99959.58;130496;1090;22546;-59
2021/07/26 02:46:31;;;;;;;15.05;12.55;;;;;;;17.55;76.77;99961.23;130365;1087;115520;-59
2021/07/26 02:49:00;;;;;;;16.25;13.05;;;;;;;17.56;76.87;99957.36;130488;1088;22593;-59
2021/07/26 02:51:29;;;;;;;25.40;14.70;;;;;;;17.59;76.88;99966.98;130426;1090;22549;-59
2021/07/26 02:53:57;;;;;;;15.18;12.88;;;;;;;17.62;77.06;99960.86;130401;1089;114086;-59
2021/07/26 02:56:26;;;;;;;19.60;13.40;;;;;;;17.64;77.26;99964.17;130483;1089;22570;-60
2021/07/26 02:58:55;;;;;;;20.00;13.95;;;;;;;17.67;77.66;99966.35;130388;1088;114527;-59
2021/07/26 03:01:25;;;;;;;16.45;12.60;;;;;;;17.70;77.75;99962.19;130465;1090;22537;-59
2021/07/26 03:03:54;;;;;;;17.40;13.33;;;;;;;17.75;77.80;99964.86;130477;1089;23000;-59
2021/07/26 03:06:23;;;;;;;19.45;13.00;;;;;;;17.80;78.00;99962.06;130323;1087;114004;-59
2021/07/26 03:08:52;;;;;;;14.73;12.13;;;;;;;17.84;77.88;99961.19;130520;1090;22519;-59
2021/07/26 03:11:21;;;;;;;17.33;11.55;;;;;;;17.87;77.52;99962.53;130403;1090;114518;-59
2021/07/26 03:13:50;;;;;;;15.13;12.27;;;;;;;17.92;77.13;99955.00;130166;1088;23685;-59
2021/07/26 03:16:20;;;;;;;15.68;11.38;;;;;;;18.00;77.04;99956.29;130357;1089;114636;-59
2021/07/26 03:18:48;;;;;;;14.25;10.48;;;;;;;18.08;76.85;99966.64;130541;1090;22506;-59
2021/07/26 03:21:17;;;;;;;14.75;10.93;;;;;;;18.16;76.85;99965.18;130439;1089;23369;-59
2021/07/26 03:23:46;;;;;;;16.53;12.20;;;;;;;18.23;77.09;99966.44;130367;1089;114661;-59
2021/07/26 03:26:15;;;;;;;16.23;12.13;;;;;;;18.31;76.89;99964.96;130509;1088;23166;-59
2021/07/26 03:28:44;;;;;;;20.83;12.90;;;;;;;18.36;76.68;99960.17;130358;1088;115107;-59
2021/07/26 03:31:13;;;;;;;14.20;10.83;;;;;;;18.47;76.94;99966.34;130456;1087;22614;-59
2021/07/26 03:33:44;;;;;;;15.85;11.88;;;;;;;18.54;76.90;99964.05;130508;1089;22507;-59
2021/07/26 03:36:14;;;;;;;15.40;12.50;;;;;;;18.63;77.03;99973.30;130360;1088;114145;-59
2021/07/26 03:38:44;;;;;;;14.98;11.48;;;;;;;18.72;77.09;99973.46;130504;1087;22503;-59
2021/07/26 03:41:13;;;;;;;17.28;12.05;;;;;;;18.81;77.01;99971.64;130083;1089;114154;-62
2021/07/26 03:43:42;;;;;;;16.38;11.20;;;;;;;18.92;76.74;99972.28;130484;1088;22537;-62
2021/07/26 03:46:11;;;;;;;15.78;11.55;;;;;;;19.02;76.33;99974.89;130494;1089;22977;-62
2021/07/26 03:48:40;;;;;;;18.83;12.10;;;;;;;19.14;75.51;99977.98;130384;1090;113938;-62
2021/07/26 03:51:09;;;;;;;22.10;12.70;;;;;;;19.24;74.56;99977.80;130466;1088;22584;-62
2021/07/26 03:53:38;;;;;;;19.25;11.50;;;;;;;19.36;74.04;99978.12;130391;1090;114243;-62
2021/07/26 03:56:06;;;;;;;17.50;12.53;;;;;;;19.49;74.42;99981.20;130510;1090;23100;-62
2021/07/26 03:58:35;;;;;;;14.65;11.33;;;;;;;19.62;74.05;99980.45;130375;1088;135261;-62
2021/07/26 04:01:04;;;;;;;14.58;11.85;;;;;;;19.73;73.99;99979.11;130478;1090;22530;-62
2021/07/26 04:03:33;;;;;;;20.90;11.83;;;;;;;19.87;73.30;99987.40;130516;1089;22642;-62
2021/07/26 04:06:10;;;;;;;20.00;11.40;;;;;;;20.00;72.60;99987.38;130372;1090;115156;-62
2021/07/26 04:08:41;;;;;;;16.43;11.25;;;;;;;20.16;72.47;99987.06;130473;1088;22540;-62
2021/07/26 04:13:40;;;;;;;14.25;11.23;;;;;;;20.54;71.61;99991.19;130470;1089;22556;-62
2021/07/26 04:16:09;;;;;;;16.13;11.83;;;;;;;20.72;70.77;99992.16;130466;1089;23252;-62
2021/07/26 04:18:38;;;;;;;17.10;11.90;;;;;;;20.88;70.08;99987.06;130389;1090;114069;-62
2021/07/26 04:21:08;;;;;;;14.75;12.48;;;;;;;21.00;69.51;99979.81;130479;1089;23438;-62
2021/07/26 04:23:37;;;;;;;21.48;12.33;;;;;;;21.12;69.17;99984.77;130362;1088;114589;-62
2021/07/26 04:26:06;;;;;;;16.48;12.70;;;;;;;21.22;68.85;99984.53;130515;1090;22479;-62
2021/07/26 04:28:38;;;;;;;21.20;13.70;;;;;;;21.31;68.75;99984.59;130308;1090;115714;-62
2021/07/26 04:31:07;;;;;;;16.10;12.98;;;;;;;21.40;68.51;99989.04;130475;1088;22524;-62
2021/07/26 04:33:36;;;;;;;18.55;12.43;;;;;;;21.49;68.09;99981.60;130505;1090;22523;-62
2021/07/26 04:36:05;;;;;;;17.35;12.43;;;;;;;21.59;67.54;99982.45;130353;1090;114783;-62
2021/07/26 04:38:34;;;;;;;16.98;12.55;;;;;;;21.67;67.20;99976.92;130488;1090;22560;-62
2021/07/26 04:41:02;;;;;;;20.28;13.18;;;;;;;21.75;66.80;99984.47;130394;1090;114226;-61
2021/07/26 04:43:34;;;;;;;15.80;12.38;;;;;;;21.81;66.28;99982.35;130529;1090;22559;-62
2021/07/26 04:46:04;;;;;;;17.25;13.65;;;;;;;21.86;66.11;99982.22;130455;1088;22575;-62
2021/07/26 04:48:33;;;;;;;16.03;12.33;;;;;;;21.89;66.02;99978.80;130381;1090;113997;-61
2021/07/26 04:51:04;;;;;;;16.35;12.88;;;;;;;21.94;66.38;99984.19;130444;1089;22573;-62
2021/07/26 04:53:33;;;;;;;18.65;12.58;;;;;;;22.02;66.09;99985.40;130341;1087;114208;-62
2021/07/26 04:56:02;;;;;;;16.25;12.40;;;;;;;22.12;65.05;99977.58;130470;1089;22547;-62
2021/07/26 04:58:31;;;;;;;19.43;12.98;;;;;;;22.23;64.69;99978.89;130370;1087;114354;-62
2021/07/26 05:01:00;;;;;;;14.23;11.30;;;;;;;22.36;64.51;99977.11;130488;1089;22527;-62
2021/07/26 05:03:30;;;;;;;22.95;13.40;;;;;;;22.46;64.39;99974.03;130486;1090;22558;-62
2021/07/26 05:05:59;;;;;;;21.95;13.48;;;;;;;22.57;64.10;99980.08;130340;1088;114145;-62
2021/07/26 05:08:27;;;;;;;24.23;12.93;;;;;;;;;;130411;1087;25063;-62
2021/07/26 05:10:56;;;;;;;16.78;11.50;;;;;;;22.78;63.05;99969.98;130383;1087;86275;-61
2021/07/26 05:13:25;;;;;;;19.28;11.93;;;;;;;22.93;62.98;99973.40;130484;1089;22559;-61
2021/07/26 05:15:54;;;;;;;16.18;12.10;;;;;;;23.10;62.83;99968.60;130427;1087;22587;-62
2021/07/26 05:18:43;;;;;;;19.45;12.10;;;;;;;23.38;61.71;99973.76;130346;1086;113886;-62
2021/07/26 05:21:12;;;;;;;15.10;11.30;;;;;;;23.71;61.61;99969.25;130455;1089;22510;-62
2021/07/26 05:23:40;;;;;;;26.55;11.30;;;;;;;24.07;60.25;99965.95;130357;1087;114135;-62
2021/07/26 05:26:09;;;;;;;22.73;11.40;;;;;;;24.45;58.49;99960.30;130458;1087;22551;-62
2021/07/26 05:28:38;;;;;;;17.98;10.78;;;;;;;24.75;57.82;99955.45;130331;1089;113413;-62
2021/07/26 05:31:07;;;;;;;11.45;10.25;;;;;;;25.01;57.95;99956.05;130473;1087;22518;-62
2021/07/26 05:33:36;;;;;;;18.23;12.08;;;;;;;25.33;57.35;99953.58;130436;1087;23218;-61
2021/07/26 05:36:05;;;;;;;17.53;11.60;;;;;;;25.63;55.72;99957.83;130365;1087;114173;-63
2021/07/26 05:38:34;;;;;;;14.07;10.90;;;;;;;25.97;55.28;99952.95;130474;1087;24656;-62
2021/07/26 05:41:04;;;;;;;10.85;9.45;;;;;;;26.34;54.65;99960.13;130360;1087;114284;-62
2021/07/26 05:43:33;;;;;;;17.23;10.25;;;;;;;26.69;52.85;99959.58;130528;1086;22523;-62
2021/07/26 05:46:02;;;;;;;11.85;9.48;;;;;;;26.92;51.36;99951.42;130464;1087;23783;-63
2021/07/26 05:48:31;;;;;;;17.63;10.38;;;;;;;27.07;51.89;99961.87;130395;1087;113991;-62
2021/07/26 05:51:00;;;;;;;13.43;9.80;;;;;;;27.32;51.19;99968.13;130509;1085;23193;-63
2021/07/26 05:53:29;;;;;;;12.28;10.15;;;;;;;27.57;50.45;99966.00;130358;1090;113321;-61
2021/07/26 05:55:59;;;;;;;12.75;8.13;;;;;;;27.82;50.21;99963.84;130481;1087;23186;-63
2021/07/26 05:58:30;;;;;;;13.78;9.38;;;;;;;28.10;49.19;99961.73;130392;1087;114100;-63
2021/07/26 06:01:11;;;;;;;12.68;9.20;;;;;;;28.38;48.20;99965.20;130457;1087;22556;-63
2021/07/26 06:03:40;;;;;;;11.45;8.70;;;;;;;28.65;48.36;99968.99;130470;1087;22550;-61
2021/07/26 06:06:09;;;;;;;13.48;9.15;;;;;;;28.88;46.57;99971.08;130404;1088;113960;-61
2021/07/26 06:08:38;;;;;;;15.05;10.05;;;;;;;29.02;45.88;99963.75;130482;1087;22512;-60
2021/07/26 06:11:06;;;;;;;12.75;10.30;;;;;;;28.99;45.82;99963.70;130353;1087;115153;-61
2021/07/26 06:13:43;;;;;;;14.75;9.38;;;;;;;28.78;46.29;99969.66;130516;1089;22517;-63
2021/07/26 06:16:12;;;;;;;12.65;9.63;;;;;;;28.55;45.76;99974.38;130491;1086;22619;-60
2021/07/26 06:18:41;;;;;;;16.23;10.18;;;;;;;28.33;46.96;99970.28;130177;1087;113564;-61
2021/07/26 06:21:10;;;;;;;16.93;9.38;;;;;;;28.15;47.57;99976.25;130519;1087;22538;-60
2021/07/26 06:23:39;;;;;;;13.30;10.13;;;;;;;27.94;47.26;99986.96;130402;1087;115386;-60
2021/07/26 06:26:09;;;;;;;11.98;10.38;;;;;;;27.70;47.74;99987.95;130471;1087;22555;-60
2021/07/26 06:28:38;;;;;;;14.20;10.85;;;;;;;27.39;48.27;99988.73;130394;1087;114202;-60
2021/07/26 06:31:08;;;;;;;12.48;10.63;;;;;;;27.18;49.79;99988.14;130511;1085;22558;-60
2021/07/26 06:33:37;;;;;;;14.20;11.48;;;;;;;27.07;49.80;99989.84;130490;1087;22541;-61
2021/07/26 06:36:06;;;;;;;13.45;10.13;;;;;;;27.01;51.12;99992.07;130405;1087;114086;-60
2021/07/26 06:38:36;;;;;;;13.40;10.18;;;;;;;26.98;51.09;99997.59;130487;1087;22580;-60
2021/07/26 06:41:09;;;;;;;14.03;10.57;;;;;;;26.95;51.27;99993.52;126701;1087;114589;-59
2021/07/26 06:43:37;;;;;;;15.60;10.58;;;;;;;26.93;51.66;99998.64;125932;1087;22799;-60
2021/07/26 06:46:07;;;;;;;16.85;9.93;;;;;;;26.91;50.66;99994.54;130499;1087;23512;-60
2021/07/26 06:48:36;;;;;;;12.55;10.58;;;;;;;26.83;51.03;99996.33;130399;1086;113751;-60
2021/07/26 06:51:05;;;;;;;17.63;9.63;;;;;;;26.80;50.85;99999.02;130506;1087;22577;-60
2021/07/26 06:53:34;;;;;;;12.10;9.33;;;;;;;26.74;50.65;100002.05;130363;1087;114817;-60
2021/07/26 06:56:07;;;;;;;12.15;8.73;;;;;;;26.72;50.79;100014.75;130490;1087;22585;-60
2021/07/26 06:58:37;;;;;;;11.80;8.70;;;;;;;26.72;50.76;100011.95;130397;1089;114249;-57
2021/07/26 07:01:11;;;;;;;53.68;11.25;;;;;;;26.73;50.65;100011.61;130474;1087;22624;-57
2021/07/26 07:03:44;;;;;;;15.93;9.60;;;;;;;26.75;50.61;100005.66;130493;1087;22532;-60
2021/07/26 07:06:14;;;;;;;18.85;9.03;;;;;;;26.73;50.30;100016.38;130361;1087;114129;-58
2021/07/26 07:08:44;;;;;;;15.68;10.28;;;;;;;26.72;50.20;100014.75;130481;1087;22498;-58
2021/07/26 07:11:15;;;;;;;13.40;8.48;;;;;;;26.73;50.52;100016.38;130402;1087;114358;-58
2021/07/26 07:13:50;;;;;;;11.63;9.13;;;;;;;26.74;48.97;100018.02;130527;1086;22589;-58
2021/07/26 07:16:20;;;;;;;12.50;9.50;;;;;;;26.74;49.48;100020.80;130474;1087;22574;-58
2021/07/26 07:18:52;;;;;;;17.78;8.98;;;;;;;26.73;50.23;100022.79;130361;1086;113962;-57
2021/07/26 07:21:31;;;;;;;9.58;8.23;;;;;;;26.75;50.24;100022.44;130525;1087;23381;-58
2021/07/26 07:24:01;;;;;;;11.75;10.03;;;;;;;26.74;50.36;100023.61;130394;1087;114279;-58
2021/07/26 07:26:31;;;;;;;16.55;10.65;;;;;;;26.73;50.85;100025.58;130442;1088;22514;-58
2021/07/26 07:29:02;;;;;;;9.83;8.73;;;;;;;26.76;50.50;100024.06;130417;1087;114477;-58
2021/07/26 07:31:36;;;;;;;12.60;9.70;;;;;;;26.78;50.65;100030.13;130476;1085;22544;-58
2021/07/26 07:34:07;;;;;;;13.65;9.25;;;;;;;26.81;51.35;100023.83;130489;1086;22511;-58
2021/07/26 07:36:41;;;;;;;14.40;9.30;;;;;;;26.83;51.09;100021.50;130396;1086;114133;-58
2021/07/26 07:39:10;;;;;;;11.00;9.68;;;;;;;26.85;49.97;100021.93;130517;1087;23426;-60
2021/07/26 07:41:39;;;;;;;12.40;9.35;;;;;;;26.83;50.20;100021.50;130391;1087;115134;-61
2021/07/26 07:44:08;;;;;;;15.23;9.65;;;;;;;26.85;50.46;100015.52;130508;1087;22548;-61
2021/07/26 07:49:42;;;;;;;10.50;9.37;;;;;;;26.91;50.20;100019.71;125682;1093;25634;-60
2021/07/26 07:52:11;;;;;;;15.33;9.75;;;;;;;26.91;50.17;100023.32;130027;1092;25303;-62
2021/07/26 07:54:42;;;;;;;9.83;8.83;;;;;;;26.92;50.60;100024.95;129704;1093;113806;-62
2021/07/26 07:57:12;;;;;;;12.40;8.55;;;;;;;26.94;50.12;100028.23;129758;1093;22542;-62
2021/07/26 07:59:42;;;;;;;9.58;8.13;;;;;;;26.98;49.74;100036.74;129676;1093;113766;-62
2021/07/26 08:02:11;;;;;;;10.10;8.80;;;;;;;26.98;49.31;100026.34;129825;1091;23061;-62
2021/07/26 08:04:40;;;;;;;13.08;8.25;;;;;;;27.00;48.79;100025.98;129688;1093;113872;-62
2021/07/26 08:07:23;;;;;;;20.52;8.63;;;;;;;27.03;48.95;100022.48;129826;1093;23417;-62
2021/07/26 08:09:52;;;;;;;11.63;8.48;;;;;;;27.06;49.81;100021.78;129783;1093;22625;-62
2021/07/26 08:12:20;;;;;;;8.18;7.15;;;;;;;27.08;46.46;100022.24;129673;1093;114025;-62
2021/07/26 08:14:50;;;;;;;9.30;7.30;;;;;;;27.09;46.99;100029.47;129807;1093;22559;-62
2021/07/26 08:17:19;;;;;;;8.90;7.00;;;;;;;27.10;47.15;100023.52;129722;1092;114570;-62
2021/07/26 08:19:50;;;;;;;9.25;6.78;;;;;;;27.14;45.99;100026.39;129772;1092;22637;-62
2021/07/26 08:22:19;;;;;;;9.58;6.63;;;;;;;27.19;45.81;100033.73;129775;1093;23148;-62
2021/07/26 08:24:48;;;;;;;7.63;6.90;;;;;;;27.20;45.95;100024.98;129690;1092;112928;-64
2021/07/26 08:27:17;;;;;;;7.95;7.08;;;;;;;27.25;45.92;100026.72;129838;1092;23551;-62
2021/07/26 08:29:46;;;;;;;12.98;7.53;;;;;;;27.27;45.93;100030.75;129686;1093;114082;-62
2021/07/26 08:32:15;;;;;;;10.88;8.50;;;;;;;27.28;45.66;100025.97;129800;1092;23405;-60
2021/07/26 08:34:44;;;;;;;9.48;7.00;;;;;;;27.26;45.99;100020.77;129668;1093;114030;-59
2021/07/26 08:37:13;;;;;;;9.28;7.70;;;;;;;27.28;44.78;100023.99;129801;1093;23542;-59
2021/07/26 08:39:42;;;;;;;9.10;7.30;;;;;;;27.28;43.91;100014.78;128685;1093;22837;-59
2021/07/26 08:42:11;;;;;;;11.58;7.28;;;;;;;27.25;43.52;100026.72;129637;1093;113771;-59
2021/07/26 08:44:40;;;;;;;14.45;8.23;;;;;;;27.24;44.71;100025.90;129776;1092;22573;-60
2021/07/26 08:47:09;;;;;;;7.58;6.78;;;;;;;27.24;45.50;100025.90;129661;1092;114127;-60
2021/07/26 08:49:38;;;;;;;8.35;6.85;;;;;;;27.27;45.31;100024.38;129761;1093;22630;-60
2021/07/26 08:52:06;;;;;;;13.10;7.40;;;;;;;27.30;45.57;100020.84;129766;1093;23469;-60
2021/07/26 08:54:36;;;;;;;12.05;7.23;;;;;;;27.33;45.55;100029.34;129613;1093;114020;-60
2021/07/26 08:57:04;;;;;;;8.95;7.40;;;;;;;27.35;44.97;100020.59;129769;1095;23346;-60
2021/07/26 08:59:34;;;;;;;9.93;6.93;;;;;;;27.38;46.05;100019.88;129700;1094;113803;-60
2021/07/26 09:02:03;;;;;;;10.38;7.28;;;;;;;27.40;45.43;100021.16;129787;1093;23256;-59
2021/07/26 09:04:31;;;;;;;9.93;7.23;;;;;;;27.42;45.45;100021.58;129620;1093;115521;-59
2021/07/26 09:07:05;;;;;;;8.00;7.20;;;;;;;27.45;44.70;100018.08;129805;1093;22530;-59
2021/07/26 09:10:00;;;;;;;12.35;7.25;;;;;;;27.44;45.22;100019.24;129771;1093;22580;-59
2021/07/26 09:12:36;;;;;;;9.30;6.50;;;;;;;27.44;45.23;100015.63;129640;1093;114046;-59
2021/07/26 09:15:07;;;;;;;7.88;7.00;;;;;;;27.45;45.08;100008.86;129803;1092;22582;-59
2021/07/26 09:17:43;;;;;;;12.08;7.40;;;;;;;27.48;45.24;100008.15;129724;1092;116317;-59
2021/07/26 09:20:13;;;;;;;;;;;;;;;27.53;44.52;100005.09;129792;1093;22566;-59
2021/07/26 09:22:43;;;;;;;9.05;6.83;;;;;;;27.54;44.78;100012.33;129704;1093;100198;-59
2021/07/26 09:25:28;;;;;;;9.43;6.10;;;;;;;27.55;44.28;100008.35;129796;1093;22535;-59
2021/07/26 09:28:00;;;;;;;7.80;7.00;;;;;;;27.57;44.60;100002.40;129796;1093;23088;-59
2021/07/26 09:30:32;;;;;;;8.35;7.25;;;;;;;27.58;44.89;99993.64;129667;1092;114172;-59
2021/07/26 09:33:02;;;;;;;10.28;6.88;;;;;;;27.62;44.18;99999.34;129808;1092;22558;-59
2021/07/26 09:35:31;;;;;;;10.57;7.73;;;;;;;27.65;44.73;100002.24;129686;1093;113782;-59
2021/07/26 09:38:01;;;;;;;7.18;6.48;;;;;;;27.70;45.39;99996.35;129787;1093;23670;-59
2021/07/26 09:40:35;;;;;;;8.70;6.40;;;;;;;27.77;44.93;99990.95;129753;1093;22525;-59
2021/07/26 09:43:15;;;;;;;13.38;7.68;;;;;;;27.83;43.79;99996.28;129709;1093;114129;-59
2021/07/26 09:45:45;;;;;;;8.00;6.53;;;;;;;27.85;43.43;99991.11;129769;1093;22654;-59
2021/07/26 09:48:15;;;;;;;8.95;7.03;;;;;;;27.87;42.22;99997.16;129680;1093;113739;-59
2021/07/26 09:50:48;;;;;;;7.57;6.70;;;;;;;27.90;43.22;99990.84;129795;1093;22678;-59
2021/07/26 09:53:24;;;;;;;12.08;7.20;;;;;;;27.93;43.07;99998.53;129673;1093;113813;-59
2021/07/26 09:55:54;;;;;;;;;;;;;;;27.96;42.72;100003.41;129826;1092;23012;-59
2021/07/26 09:58:40;;;;;;;13.05;5.83;;;;;;;27.98;42.86;99995.46;129796;1092;21332;-59
2021/07/26 10:01:09;;;;;;;7.53;6.18;;;;;;;28.01;42.10;99987.12;129680;1093;113632;-59
2021/07/26 10:03:39;;;;;;;14.83;6.78;;;;;;;28.05;42.37;99992.81;129787;1092;22569;-59
2021/07/26 10:06:10;;;;;;;9.43;6.78;;;;;;;28.09;42.39;99996.52;129674;1093;113815;-59
2021/07/26 10:08:39;;;;;;;11.75;6.18;;;;;;;28.15;42.55;99995.86;129778;1093;22755;-59
2021/07/26 10:11:08;;;;;;;10.90;7.15;;;;;;;28.17;41.77;99992.70;129338;1096;114045;-59
2021/07/26 10:13:44;;;;;;;8.58;6.18;;;;;;;28.17;42.14;99989.90;129817;1093;22537;-59
2021/07/26 10:16:18;;;;;;;10.45;7.10;;;;;;;28.16;42.76;99988.27;129804;1093;22562;-59
2021/07/26 10:18:49;;;;;;;11.97;7.70;;;;;;;28.19;41.73;99981.97;129703;1093;114326;-59
2021/07/26 10:21:19;;;;;;;14.85;7.80;;;;;;;28.22;40.79;99988.84;129802;1093;22580;-59
2021/07/26 10:23:50;;;;;;;10.83;6.80;;;;;;;28.24;41.05;99992.91;129682;1092;114225;-59
2021/07/26 10:26:20;;;;;;;8.60;7.33;;;;;;;28.29;41.61;99992.61;129772;1093;22569;-57
2021/07/26 10:28:54;;;;;;;14.13;8.05;;;;;;;28.34;41.71;99986.73;129665;1093;113781;-59
2021/07/26 10:31:30;;;;;;;8.18;7.45;;;;;;;28.39;41.07;99978.05;129750;1095;23437;-59
2021/07/26 10:34:08;;;;;;;8.53;6.08;;;;;;;28.44;41.11;99977.74;129778;1095;22583;-59
2021/07/26 10:36:41;;;;;;;7.73;6.03;;;;;;;28.47;40.39;99979.81;129714;1093;113035;-59
2021/07/26 10:39:19;;;;;;;13.63;6.63;;;;;;;28.49;41.82;99977.46;129672;1093;22583;-59
2021/07/26 10:41:48;;;;;;;10.75;6.45;;;;;;;28.51;41.19;99974.30;124946;1094;114173;-59
2021/07/26 10:44:18;;;;;;;7.75;6.78;;;;;;;28.51;41.48;99974.30;125060;1093;25348;-58
2021/07/26 10:46:56;;;;;;;28.50;8.23;;;;;;;28.48;41.03;99973.03;129719;1093;22598;-59
2021/07/26 10:49:44;;;;;;;9.95;6.55;;;;;;;28.42;40.31;99968.88;129756;1093;22582;-59
2021/07/26 10:52:22;;;;;;;9.25;6.48;;;;;;;28.36;40.93;99967.56;129816;1093;22577;-59
2021/07/26 10:54:54;;;;;;;15.60;7.68;;;;;;;28.33;41.52;99962.69;129670;1093;113612;-59
2021/07/26 10:57:46;;;;;;;6.93;6.15;;;;;;;28.34;41.59;99955.90;129739;1095;23218;-59
2021/07/26 11:00:16;;;;;;;7.95;6.88;;;;;;;28.38;41.50;99955.98;129691;1094;113560;-59
2021/07/26 11:02:49;;;;;;;10.48;6.53;;;;;;;28.41;42.43;99961.68;129803;1095;22558;-59
2021/07/26 11:05:27;;;;;;;6.85;6.05;;;;;;;28.47;43.42;99957.39;129656;1095;113880;-59
2021/07/26 11:08:15;;;;;;;7.50;6.68;;;;;;;28.54;40.64;99958.73;129750;1093;22646;-59
2021/07/26 11:10:47;;;;;;;7.90;6.70;;;;;;;28.60;39.59;99954.44;129806;1094;22566;-59
2021/07/26 11:13:17;;;;;;;8.08;6.80;;;;;;;28.64;39.46;99956.15;129659;1094;114181;-59
2021/07/26 11:15:54;;;;;;;9.75;6.08;;;;;;;28.66;38.87;99956.59;129762;1093;23268;-59
2021/07/26 11:18:42;;;;;;;22.38;7.68;;;;;;;28.68;38.59;99948.63;129698;1094;113592;-59
2021/07/26 11:21:12;;;;;;;7.13;6.38;;;;;;;28.70;37.83;99945.46;129787;1095;22560;-59
2021/07/26 11:23:44;;;;;;;11.65;8.18;;;;;;;28.72;38.89;99952.30;129615;1093;114044;-60
2021/07/26 11:26:22;;;;;;;8.73;7.93;;;;;;;28.75;38.50;99947.95;129771;1093;22626;-59
2021/07/26 11:28:53;;;;;;;11.18;6.23;;;;;;;28.78;38.98;99944.41;129828;1093;23395;-59
2021/07/26 11:31:33;;;;;;;7.65;6.58;;;;;;;28.80;39.11;99944.89;129652;1093;113758;-59
2021/07/26 11:34:05;;;;;;;14.10;6.40;;;;;;;28.81;39.67;99947.33;129785;1092;22540;-59